Simmons, Missouri
Current Conditions -  °F | °C
As of 7:53 AM on Monday 20 Oct 2014 (Local Time) from KUNO Reporting Station
Broken Clouds Broken Clouds  
Wind Chill: 53°   Ceiling: 11000
Heat Index: 53°   Visibility: 8mi
Dew Point: 48°   Wind: 8mph
Humidity: 83%   Direction: 250°WSW
Pressure: 30.06"   Gusts: NA
Location:  37.3091°N, 91.9516°W
Report Text: KUNO 201253Z AUTO 25007KT 8SM FEW080 BKN110 12/09 A3006 RMK AO2 SLP176 T01170089
Loading
Personal Weather Stations






























Interactive Weather Map
Tropical Storm Tracking
New forecast layout! Learn more

10-Day Weather Forecast

Advertisements
Track Severe Weather on mobile